Time;durP1;ratioP1;P1;durP2;ratioP2;P2;SDS_P1;SDS_P2;PMS_P1;PMS_P2;Temp;Humidity;BMP_temperature;BMP_pressure;BME280_temperature;BME280_humidity;BME280_pressure;Samples;Min_cycle;Max_cycle;Signal;HPM_P1;HPM_P2
2022/07/14 00:02:10;;;;;;;0.57;0.27;;;;;;;20.49;58.11;97062.34;10371791;28;20437;-21
2022/07/14 00:07:11;;;;;;;0.27;0.27;;;;;;;20.32;57.86;97065.78;10368622;28;20389;-21
2022/07/14 00:12:11;;;;;;;0.87;0.30;;;;;;;20.26;57.92;97062.41;10372285;28;20096;-21
2022/07/14 00:17:11;;;;;;;0.57;0.30;;;;;;;20.21;58.13;97054.78;10364156;28;20060;-20
2022/07/14 00:22:12;;;;;;;0.43;0.30;;;;;;;20.20;58.43;97054.78;10368111;28;20233;-21
2022/07/14 00:27:13;;;;;;;0.55;0.30;;;;;;;20.18;58.30;97028.50;10371419;28;20034;-21
2022/07/14 00:32:13;;;;;;;0.20;0.20;;;;;;;20.19;58.39;97028.50;10370303;28;20053;-21
2022/07/14 00:37:13;;;;;;;0.40;0.30;;;;;;;20.18;58.66;97028.50;10368993;28;20049;-21
2022/07/14 00:42:14;;;;;;;1.03;0.30;;;;;;;20.12;58.26;97028.50;10368840;28;20377;-20
2022/07/14 00:47:14;;;;;;;1.30;0.50;;;;;;;20.39;58.56;97042.84;10365749;28;20030;-20
2022/07/14 00:52:15;;;;;;;1.55;0.70;;;;;;;20.52;58.66;97047.06;10372635;28;20365;-20
2022/07/14 00:57:15;;;;;;;0.20;0.20;;;;;;;20.39;57.93;97060.66;10367643;28;20033;-21
2022/07/14 01:02:20;;;;;;;0.35;0.15;;;;;;;20.29;57.97;97057.28;10369351;28;20654;-20
2022/07/14 01:07:20;;;;;;;0.63;0.22;;;;;;;20.22;58.02;97031.03;10369131;28;20087;-21
2022/07/14 01:12:21;;;;;;;0.20;0.20;;;;;;;20.22;58.41;97025.09;10368047;28;20088;-20
2022/07/14 01:17:21;;;;;;;0.63;0.40;;;;;;;20.20;58.41;97021.72;10365628;28;20049;-21
2022/07/14 01:22:22;;;;;;;0.43;0.30;;;;;;;20.20;58.38;97014.09;10368313;28;20026;-21
2022/07/14 01:27:22;;;;;;;0.33;0.33;;;;;;;20.21;58.34;97015.78;10379212;28;20390;-21
2022/07/14 01:32:23;;;;;;;0.63;0.33;;;;;;;20.19;58.46;97020.03;10369994;28;20295;-20
2022/07/14 01:37:24;;;;;;;0.40;0.30;;;;;;;20.36;58.79;97013.22;10366249;28;20285;-20
2022/07/14 01:42:24;;;;;;;0.30;0.30;;;;;;;20.54;58.57;97009.75;10368031;28;20105;-21
2022/07/14 01:47:25;;;;;;;0.85;0.30;;;;;;;20.45;57.83;97012.31;10365488;28;20054;-20
2022/07/14 01:52:26;;;;;;;0.93;0.20;;;;;;;20.31;57.87;97009.81;10370264;28;20029;-20
2022/07/14 01:57:26;;;;;;;0.70;0.20;;;;;;;20.26;58.29;97002.19;10368644;28;20484;-20
2022/07/14 02:02:29;;;;;;;0.70;0.28;;;;;;;20.18;58.28;96992.91;10365434;28;20036;-21
2022/07/14 02:07:29;;;;;;;1.80;0.43;;;;;;;20.23;58.52;97001.38;10366920;28;20037;-20
2022/07/14 02:12:47;;;;;;;0.98;0.30;;;;;;;20.22;58.44;96997.13;10367872;28;20100;-20
2022/07/14 02:17:48;;;;;;;0.73;0.20;;;;;;;20.21;58.39;97003.06;10365915;28;20440;-21
2022/07/14 02:22:49;;;;;;;0.57;0.17;;;;;;;20.21;58.41;97008.16;10364430;28;20355;-20
2022/07/14 02:27:50;;;;;;;0.80;0.40;;;;;;;20.27;59.11;97003.06;10370806;28;20033;-21
2022/07/14 02:32:50;;;;;;;0.50;0.40;;;;;;;20.48;58.42;96994.50;10366805;28;20042;-21
2022/07/14 02:37:52;;;;;;;0.28;0.28;;;;;;;20.49;57.75;96990.28;10366189;28;20285;-20
2022/07/14 02:42:52;;;;;;;1.17;0.43;;;;;;;20.34;58.01;97009.84;10369442;28;20084;-20
2022/07/14 02:47:53;;;;;;;0.20;0.20;;;;;;;20.29;57.95;97003.91;10365152;28;20795;-21
2022/07/14 02:52:53;;;;;;;0.40;0.22;;;;;;;20.25;58.27;96999.69;10371161;28;20514;-20
2022/07/14 02:57:55;;;;;;;0.52;0.30;;;;;;;20.23;58.17;96986.09;10370065;28;20420;-20
2022/07/14 03:02:55;;;;;;;0.17;0.15;;;;;;;20.23;58.33;96988.66;10366782;28;20026;-21
2022/07/14 03:07:55;;;;;;;0.20;0.20;;;;;;;20.21;58.53;96986.13;10368153;28;20403;-20
2022/07/14 03:12:57;;;;;;;0.10;0.10;;;;;;;20.20;58.44;96975.97;10365028;28;20436;-21
2022/07/14 03:17:58;;;;;;;0.40;0.20;;;;;;;20.21;58.57;96985.28;10370456;28;20030;-21
2022/07/14 03:22:59;;;;;;;0.52;0.30;;;;;;;20.43;58.14;96980.97;10371486;28;20685;-21
2022/07/14 03:28:00;;;;;;;0.43;0.38;;;;;;;20.59;58.15;96976.66;10380053;28;20080;-21
2022/07/14 03:33:07;;;;;;;0.40;0.30;;;;;;;20.36;57.81;96967.44;10398780;28;20042;-20
2022/07/14 03:38:07;;;;;;;0.15;0.13;;;;;;;20.31;58.52;96985.25;10371710;28;20037;-20
2022/07/14 03:43:09;;;;;;;0.68;0.38;;;;;;;20.28;58.34;96989.50;10372245;28;20030;-20
2022/07/14 03:48:10;;;;;;;0.77;0.20;;;;;;;20.23;58.50;96983.56;10371183;28;20034;-20
2022/07/14 03:53:14;;;;;;;1.33;0.63;;;;;;;20.39;55.72;97009.78;10373029;28;20403;-22
2022/07/14 03:58:14;;;;;;;2.30;0.80;;;;;;;20.59;52.14;97002.09;10378264;28;20040;-20
2022/07/14 04:03:17;;;;;;;0.80;0.52;;;;;;;20.51;54.06;96998.75;10391007;28;20037;-20
2022/07/14 04:08:17;;;;;;;0.98;0.50;;;;;;;20.42;55.70;96996.22;10380788;28;20075;-20
2022/07/14 04:13:26;;;;;;;2.95;0.80;;;;;;;20.57;51.52;96989.38;10368038;28;20622;-20
2022/07/14 04:18:26;;;;;;;0.70;0.68;;;;;;;20.72;50.49;96994.41;10377041;28;20600;-20
2022/07/14 04:23:28;;;;;;;0.82;0.40;;;;;;;20.49;54.24;96975.88;10370627;28;20036;-21
2022/07/14 04:28:29;;;;;;;0.40;0.30;;;;;;;20.42;56.25;96999.63;10378068;28;20033;-21
2022/07/14 04:33:30;;;;;;;0.63;0.63;;;;;;;20.39;55.82;96988.63;10369115;28;20124;-21
2022/07/14 04:38:30;;;;;;;1.02;0.50;;;;;;;20.34;55.26;96980.16;10370808;28;20018;-21
2022/07/14 04:43:32;;;;;;;3.05;0.85;;;;;;;20.30;56.68;96968.31;10375093;28;20037;-21
2022/07/14 04:53:58;;;;;;;1.80;0.50;;;;;;;20.38;56.51;96965.72;10332246;28;20475;-20
2022/07/14 04:59:33;;;;;;;3.95;0.55;;;;;;;20.27;56.58;96968.28;10346125;28;20060;-20
2022/07/14 05:04:34;;;;;;;3.08;0.90;;;;;;;20.28;55.77;96969.16;10368465;28;20451;-20
2022/07/14 05:09:38;;;;;;;10.15;1.60;;;;;;;20.51;53.99;96974.16;10367942;28;20038;-20
2022/07/14 05:14:39;;;;;;;1.80;0.43;;;;;;;20.54;55.67;96969.06;10367542;28;20381;-20
2022/07/14 05:19:41;;;;;;;1.98;0.40;;;;;;;20.39;57.00;96971.66;10366100;28;20115;-20
2022/07/14 05:24:41;;;;;;;2.70;0.52;;;;;;;20.34;57.25;96966.59;10368553;28;20173;-21
2022/07/14 05:29:42;;;;;;;0.32;0.30;;;;;;;20.29;57.35;96970.84;10370605;28;20062;-20
2022/07/14 05:34:43;;;;;;;2.38;0.60;;;;;;;20.29;57.36;96964.06;10367512;28;20390;-20
2022/07/14 05:39:46;;;;;;;0.40;0.30;;;;;;;20.27;57.59;96955.59;10366327;28;20029;-20
2022/07/14 05:44:47;;;;;;;2.03;0.57;;;;;;;20.28;57.57;96956.44;10364221;28;20045;-21
2022/07/14 05:49:48;;;;;;;1.00;0.30;;;;;;;20.27;57.67;96953.03;10374246;28;20684;-20
2022/07/14 05:54:49;;;;;;;0.40;0.30;;;;;;;20.26;57.61;96960.69;10372411;28;20041;-21
2022/07/14 05:59:52;;;;;;;1.77;0.73;;;;;;;20.44;56.54;96962.31;10366030;28;20484;-20
2022/07/14 06:04:53;;;;;;;0.47;0.32;;;;;;;20.58;56.05;96954.63;10367716;28;20045;-20
2022/07/14 06:09:54;;;;;;;0.30;0.30;;;;;;;20.46;56.98;96965.69;10370765;28;20044;-20
2022/07/14 06:14:55;;;;;;;12.63;1.38;;;;;;;20.33;57.38;96968.28;10371604;28;20042;-20
2022/07/14 06:19:56;;;;;;;12.57;1.50;;;;;;;20.31;58.00;96961.50;10376870;28;20492;-20
2022/07/14 06:24:56;;;;;;;2.90;0.50;;;;;;;20.27;58.01;96952.22;10375644;28;20555;-20
2022/07/14 06:30:05;;;;;;;2.58;0.50;;;;;;;20.20;57.89;96940.38;10373330;28;20033;-20
2022/07/14 06:35:08;;;;;;;3.90;0.40;;;;;;;20.21;58.02;96944.59;10388802;28;20045;-20
2022/07/14 06:40:09;;;;;;;7.97;1.30;;;;;;;20.15;58.11;96931.91;10369513;28;20444;-20
2022/07/14 06:45:14;;;;;;;3.33;1.00;;;;;;;20.20;58.01;96933.59;10365819;28;20030;-20
2022/07/14 06:50:15;;;;;;;2.20;0.68;;;;;;;20.34;56.64;96938.63;10375354;28;20479;-20
2022/07/14 06:55:17;;;;;;;3.47;0.77;;;;;;;20.53;56.13;96931.75;10377636;28;20121;-20
2022/07/14 07:00:18;;;;;;;1.98;0.60;;;;;;;20.52;56.56;96941.91;10375160;28;20044;-20
2022/07/14 07:10:40;;;;;;;2.10;1.55;;;;;;;20.29;57.49;96932.69;10377453;28;20475;-20
2022/07/14 07:15:41;;;;;;;5.38;3.30;;;;;;;20.27;57.97;96942.03;10372177;28;20030;-21
2022/07/14 07:20:43;;;;;;;7.33;1.83;;;;;;;20.23;58.01;96936.13;10374067;28;20034;-20
2022/07/14 07:25:44;;;;;;;3.03;1.10;;;;;;;20.22;58.02;96936.13;10374363;28;20300;-21
2022/07/14 07:30:44;;;;;;;1.63;1.10;;;;;;;20.22;58.12;96938.66;10366211;28;20042;-20
2022/07/14 07:35:45;;;;;;;1.37;1.00;;;;;;;20.22;58.22;96931.03;10369305;28;20034;-21
2022/07/14 07:40:48;;;;;;;2.97;0.80;;;;;;;20.24;57.55;96929.31;10367217;28;20040;-20
2022/07/14 07:45:49;;;;;;;1.25;0.82;;;;;;;20.50;56.68;96925.81;10371347;28;20152;-21
2022/07/14 07:50:50;;;;;;;1.55;0.73;;;;;;;20.59;56.47;96926.63;10369805;28;20070;-21
2022/07/14 07:55:51;;;;;;;2.42;0.80;;;;;;;20.42;58.21;96926.72;10376123;28;20091;-21
2022/07/14 08:00:52;;;;;;;2.83;0.80;;;;;;;20.35;58.23;96918.25;10371636;28;20374;-21
2022/07/14 08:05:52;;;;;;;3.83;0.70;;;;;;;20.25;58.51;96908.16;10370241;28;20029;-21
2022/07/14 08:10:52;;;;;;;0.93;0.60;;;;;;;20.32;58.23;96915.75;10370899;28;20183;-21
2022/07/14 08:15:53;;;;;;;2.67;0.60;;;;;;;20.28;58.38;96908.13;10371097;28;20034;-20
2022/07/14 08:20:53;;;;;;;2.23;0.50;;;;;;;20.30;58.53;96912.38;10371057;28;20485;-21
2022/07/14 08:25:54;;;;;;;2.07;0.77;;;;;;;20.23;58.38;96899.66;10371844;28;20025;-20
2022/07/14 08:30:54;;;;;;;1.83;0.60;;;;;;;20.30;58.25;96906.41;10375269;28;20296;-20
2022/07/14 08:35:54;;;;;;;1.00;0.70;;;;;;;20.43;57.24;96911.44;10370757;28;20587;-21
2022/07/14 08:40:55;;;;;;;6.40;0.77;;;;;;;20.61;56.57;96904.56;10371899;28;20026;-21
2022/07/14 08:45:56;;;;;;;3.40;0.60;;;;;;;20.59;57.00;96906.28;10369508;28;20037;-21
2022/07/14 08:50:58;;;;;;;0.50;0.50;;;;;;;20.44;57.60;96892.78;10369217;28;20507;-21
2022/07/14 08:55:59;;;;;;;1.25;0.60;;;;;;;20.35;57.79;96887.75;10372518;28;20504;-20
2022/07/14 09:00:59;;;;;;;2.13;0.60;;;;;;;20.34;57.77;96886.06;10369130;28;20092;-21
2022/07/14 09:05:59;;;;;;;1.03;0.70;;;;;;;20.33;57.93;96874.19;10369187;28;20030;-21
2022/07/14 09:11:00;;;;;;;3.67;0.82;;;;;;;20.33;57.92;96883.53;10367977;28;20779;-21
2022/07/14 09:16:21;;;;;;;0.67;0.40;;;;;;;20.36;58.00;96881.81;10366422;28;20084;-20
2022/07/14 09:21:22;;;;;;;4.22;0.60;;;;;;;20.34;57.92;96872.50;10366681;28;20117;-20
2022/07/14 09:26:22;;;;;;;1.50;0.80;;;;;;;20.34;57.90;96872.50;10370381;28;20439;-21
2022/07/14 09:31:26;;;;;;;4.28;1.33;;;;;;;20.56;56.69;96865.59;10369279;28;20121;-21
2022/07/14 09:36:31;;;;;;;0.55;0.43;;;;;;;20.72;56.47;96863.81;10369917;28;20068;-21
2022/07/14 09:41:36;;;;;;;0.60;0.50;;;;;;;20.52;57.34;96857.97;10371021;28;20057;-21
2022/07/14 09:46:51;;;;;;;5.60;0.60;;;;;;;20.44;57.55;96865.66;10364149;28;20547;-21
2022/07/14 09:52:01;;;;;;;4.70;1.25;;;;;;;20.39;57.69;96866.56;10367061;28;20073;-22
2022/07/14 09:57:02;;;;;;;2.25;0.50;;;;;;;20.37;57.80;96857.22;10361380;28;20034;-21
2022/07/14 10:02:02;;;;;;;2.22;0.90;;;;;;;20.36;57.72;96850.47;10367744;28;20032;-20
2022/07/14 10:07:03;;;;;;;3.03;0.77;;;;;;;20.36;58.07;96845.38;10365844;28;20036;-21
2022/07/14 10:12:05;;;;;;;2.80;0.93;;;;;;;20.34;57.98;96842.00;10366847;28;20033;-20
2022/07/14 10:17:06;;;;;;;2.78;1.58;;;;;;;20.33;58.00;96835.22;10372051;28;20038;-21
2022/07/14 10:22:08;;;;;;;6.95;0.73;;;;;;;20.50;57.40;96842.75;10370618;28;20542;-22
2022/07/14 10:27:10;;;;;;;3.97;0.90;;;;;;;20.71;57.00;96834.97;10373085;28;20535;-21
2022/07/14 10:32:32;;;;;;;1.35;0.70;;;;;;;20.65;57.03;96824.81;10367072;28;20040;-21
2022/07/14 10:38:09;;;;;;;2.65;0.63;;;;;;;20.48;57.53;96821.53;10358783;28;20034;-21
2022/07/14 10:43:15;;;;;;;3.78;0.60;;;;;;;20.41;57.95;96816.53;10358065;28;20061;-21
2022/07/14 10:48:35;;;;;;;2.63;0.55;;;;;;;20.35;57.97;96808.91;10366465;28;20038;-20
2022/07/14 10:53:58;;;;;;;1.08;0.55;;;;;;;20.38;58.00;96813.16;10361377;28;20033;-20
2022/07/14 10:59:26;;;;;;;5.30;1.30;;;;;;;20.36;57.92;96812.31;10372348;28;20104;-21
2022/07/14 11:04:55;;;;;;;2.53;0.50;;;;;;;20.36;58.26;96807.22;10363877;28;20034;-21
2022/07/14 11:09:55;;;;;;;0.70;0.60;;;;;;;20.34;58.33;96797.06;10359774;28;20062;-21
2022/07/14 11:14:56;;;;;;;1.93;0.77;;;;;;;20.48;57.66;96785.09;10364752;28;20113;-21
2022/07/14 11:19:56;;;;;;;1.88;0.70;;;;;;;20.67;57.17;96777.34;10365759;28;20361;-21
2022/07/14 11:25:01;;;;;;;2.10;0.60;;;;;;;20.73;57.17;96782.34;10364126;28;20046;-21
2022/07/14 11:30:22;;;;;;;0.45;0.43;;;;;;;20.53;57.65;96779.13;10357427;28;20324;-20
2022/07/14 11:41:12;;;;;;;;;;;;;;;20.42;58.04;96758.88;10376464;28;20025;-20
2022/07/14 11:46:15;;;;;;;3.03;0.65;;;;;;;20.37;58.05;96750.44;10376564;28;19913;-21
2022/07/14 11:51:26;;;;;;;4.57;0.95;;;;;;;20.40;57.91;96746.16;10372802;28;20513;-21
2022/07/14 11:56:28;;;;;;;1.58;0.70;;;;;;;20.38;58.21;96730.09;10376596;28;20451;-21
2022/07/14 12:01:38;;;;;;;2.85;0.70;;;;;;;20.37;58.12;96732.63;10369935;28;20109;-21
2022/07/14 12:06:43;;;;;;;1.15;0.75;;;;;;;20.40;58.18;96726.66;10376850;28;20042;-20
2022/07/14 12:11:51;;;;;;;1.33;0.80;;;;;;;20.72;57.28;96718.78;10375605;28;20049;-21
2022/07/14 12:16:52;;;;;;;1.63;0.40;;;;;;;20.73;57.27;96706.03;10371392;28;20480;-20
2022/07/14 12:22:04;;;;;;;0.80;0.40;;;;;;;20.58;57.74;96720.59;10370862;28;20029;-21
2022/07/14 12:27:07;;;;;;;2.95;0.50;;;;;;;20.49;57.94;96706.25;10374009;28;20284;-21
2022/07/14 12:32:08;;;;;;;1.70;1.15;;;;;;;20.48;58.11;96703.72;10369725;28;20061;-21
2022/07/14 12:37:09;;;;;;;4.57;0.90;;;;;;;20.44;58.30;96708.00;10372163;28;20036;-21
2022/07/14 12:42:10;;;;;;;2.20;1.02;;;;;;;20.37;58.42;96695.34;10371074;28;20476;-21
2022/07/14 12:47:12;;;;;;;2.08;0.90;;;;;;;20.40;58.45;96696.13;10368393;28;20041;-22
2022/07/14 12:52:14;;;;;;;3.72;0.60;;;;;;;20.40;58.39;96708.84;10371751;28;20061;-21
2022/07/14 12:57:21;;;;;;;2.90;0.60;;;;;;;20.38;58.33;96691.94;10369013;28;20045;-21
2022/07/14 13:02:23;;;;;;;0.90;0.70;;;;;;;20.64;58.35;96690.84;10367155;28;20030;-21
2022/07/14 13:07:27;;;;;;;1.95;0.40;;;;;;;20.81;57.57;96686.44;10370668;28;20038;-21
2022/07/14 13:12:28;;;;;;;1.42;0.40;;;;;;;20.68;57.67;96682.34;10368730;28;20022;-22
2022/07/14 13:18:02;;;;;;;2.85;0.60;;;;;;;20.54;57.91;96676.53;10368552;28;20507;-21
2022/07/14 13:23:02;;;;;;;3.40;0.90;;;;;;;20.50;58.38;96681.66;10371208;28;20026;-21
2022/07/14 13:28:03;;;;;;;8.20;1.40;;;;;;;20.52;59.06;96664.66;10373735;28;20447;-22
2022/07/14 13:33:03;;;;;;;4.05;0.80;;;;;;;20.46;58.42;96662.22;10368053;28;20112;-21
2022/07/14 13:38:03;;;;;;;6.40;0.90;;;;;;;20.45;58.46;96679.16;10368366;28;20559;-21
2022/07/14 13:43:04;;;;;;;4.10;1.00;;;;;;;20.44;58.34;96662.22;10366765;28;20382;-21
2022/07/14 13:48:05;;;;;;;3.47;0.70;;;;;;;20.43;58.34;96669.84;10366838;28;20080;-21
2022/07/14 13:53:05;;;;;;;4.07;0.70;;;;;;;20.56;58.18;96664.63;10370800;28;20033;-21
2022/07/14 13:58:06;;;;;;;1.67;0.50;;;;;;;20.76;57.55;96650.03;10370578;28;20030;-20
2022/07/14 14:03:26;;;;;;;2.13;0.60;;;;;;;20.79;57.48;96659.34;10365969;28;20475;-20
2022/07/14 14:08:28;;;;;;;1.27;0.57;;;;;;;20.61;57.88;96660.34;10364844;28;20512;-19
2022/07/14 14:13:30;;;;;;;2.05;0.50;;;;;;;20.53;58.24;96657.03;10368652;28;20030;-20
2022/07/14 14:18:31;;;;;;;0.93;0.65;;;;;;;20.49;58.28;96650.31;10364546;28;20029;-22
2022/07/14 14:23:33;;;;;;;1.52;0.70;;;;;;;20.48;58.39;96652.84;10366531;28;20507;-19
2022/07/14 14:28:33;;;;;;;0.90;0.60;;;;;;;20.44;58.38;96644.41;10370611;28;20036;-18
2022/07/14 14:33:34;;;;;;;1.95;0.60;;;;;;;20.46;58.42;96635.06;10367141;28;20044;-19
2022/07/14 14:38:36;;;;;;;1.00;0.40;;;;;;;20.43;58.51;96629.16;10368181;28;20058;-19
2022/07/14 14:43:37;;;;;;;1.00;0.77;;;;;;;20.49;58.83;96626.56;10361687;28;20042;-20
2022/07/14 14:48:39;;;;;;;1.13;0.53;;;;;;;20.76;57.84;96623.75;10366641;28;20424;-19
2022/07/14 14:53:39;;;;;;;0.55;0.43;;;;;;;20.87;57.46;96622.81;10368943;28;20810;-20
2022/07/14 14:58:39;;;;;;;0.83;0.40;;;;;;;20.72;57.69;96612.75;10365861;28;20047;-20
2022/07/14 15:03:40;;;;;;;0.60;0.50;;;;;;;20.60;57.88;96617.97;10367986;28;20030;-21
2022/07/14 15:08:40;;;;;;;2.73;0.60;;;;;;;20.54;58.28;96618.03;10377337;28;20864;-19
2022/07/14 15:13:41;;;;;;;0.88;0.70;;;;;;;20.52;58.36;96614.66;10374962;28;20293;-19
2022/07/14 15:18:41;;;;;;;0.60;0.60;;;;;;;20.49;58.55;96602.00;10379179;28;20433;-19
2022/07/14 15:23:41;;;;;;;3.83;0.93;;;;;;;20.48;58.60;96595.19;10380518;28;20522;-19
2022/07/14 15:28:42;;;;;;;0.77;0.67;;;;;;;20.47;58.54;96601.13;10381904;28;20042;-19
2022/07/14 15:33:43;;;;;;;1.80;0.50;;;;;;;20.48;58.64;96599.44;10376263;28;20512;-20
2022/07/14 15:44:02;;;;;;;0.73;0.50;;;;;;;20.89;57.68;96584.63;10368026;28;20087;-19
2022/07/14 15:49:03;;;;;;;1.50;0.50;;;;;;;20.81;57.82;96566.84;10371754;28;20453;-19
2022/07/14 15:54:04;;;;;;;0.40;0.40;;;;;;;20.66;57.77;96577.22;10376916;28;20289;-20
2022/07/14 15:59:06;;;;;;;1.00;0.80;;;;;;;20.60;58.23;96574.72;10374123;28;20289;-20
2022/07/14 16:04:07;;;;;;;0.98;0.70;;;;;;;20.56;58.48;96579.88;10371059;28;20042;-19
2022/07/14 16:09:07;;;;;;;0.88;0.52;;;;;;;20.53;58.42;96579.88;10368389;28;20029;-20
2022/07/14 16:14:07;;;;;;;2.30;0.60;;;;;;;20.52;58.35;96578.19;10368096;28;20029;-20
2022/07/14 16:19:08;;;;;;;3.27;0.87;;;;;;;20.52;58.45;96576.50;10379566;28;20296;-20
2022/07/14 16:24:09;;;;;;;1.23;0.68;;;;;;;20.50;58.79;96574.84;10369251;28;20061;-20
2022/07/14 16:29:09;;;;;;;2.83;0.77;;;;;;;20.58;59.69;96573.91;10372886;28;20030;-20
2022/07/14 16:34:10;;;;;;;1.40;0.52;;;;;;;20.86;58.37;96564.28;10369448;28;20292;-20
2022/07/14 16:39:10;;;;;;;1.70;0.40;;;;;;;20.90;57.38;96559.13;10370269;28;20026;-20
2022/07/14 16:44:10;;;;;;;0.50;0.50;;;;;;;20.72;58.12;96566.94;10366398;28;20293;-20
2022/07/14 16:49:11;;;;;;;1.80;0.50;;;;;;;20.58;58.32;96558.66;10368483;28;20040;-20
2022/07/14 16:54:11;;;;;;;0.60;0.50;;;;;;;20.57;58.30;96556.94;10364164;28;20091;-20
2022/07/14 16:59:12;;;;;;;2.37;0.40;;;;;;;20.54;58.30;96562.06;10368393;28;20062;-20
2022/07/14 17:04:12;;;;;;;1.58;0.50;;;;;;;20.52;58.22;96566.34;10365500;28;20029;-20
2022/07/14 17:09:13;;;;;;;0.93;0.53;;;;;;;20.52;58.44;96558.72;10363265;28;20038;-20
2022/07/14 17:14:13;;;;;;;4.00;0.50;;;;;;;20.52;58.47;96562.94;10372982;28;20510;-20
2022/07/14 17:19:13;;;;;;;0.77;0.43;;;;;;;20.52;58.79;96568.03;10366596;28;20331;-20
2022/07/14 17:24:14;;;;;;;2.37;0.80;;;;;;;20.75;58.03;96556.75;10368589;28;20280;-20
2022/07/14 17:29:14;;;;;;;2.90;0.70;;;;;;;20.94;57.42;96560.81;10370232;28;20293;-20
2022/07/14 17:34:15;;;;;;;1.30;0.57;;;;;;;20.84;57.51;96563.44;10368168;28;20281;-21
2022/07/14 17:39:15;;;;;;;3.93;0.53;;;;;;;20.69;58.17;96566.13;10366961;28;20037;-20
2022/07/14 17:44:15;;;;;;;1.53;0.43;;;;;;;20.62;58.33;96565.38;10360521;28;20415;-21
2022/07/14 17:49:16;;;;;;;4.53;0.63;;;;;;;20.58;58.59;96563.75;10362598;28;20318;-20
2022/07/14 17:54:16;;;;;;;3.40;0.75;;;;;;;20.57;58.67;96567.13;10366426;28;20116;-21
2022/07/14 17:59:17;;;;;;;0.80;0.60;;;;;;;20.57;58.53;96569.66;10366325;28;20112;-21
2022/07/14 18:04:18;;;;;;;2.90;0.70;;;;;;;20.57;58.43;96573.91;10364428;28;20033;-21
2022/07/14 18:09:19;;;;;;;0.82;0.50;;;;;;;20.57;58.47;96576.47;10365554;28;20038;-21
2022/07/14 18:14:19;;;;;;;1.17;0.82;;;;;;;20.71;58.55;96579.72;10362309;28;20034;-21
2022/07/14 18:19:20;;;;;;;0.60;0.50;;;;;;;20.94;57.48;96591.34;10369157;28;20034;-21
2022/07/14 18:24:20;;;;;;;1.50;0.68;;;;;;;21.02;57.04;96588.69;10368332;28;20029;-21
2022/07/14 18:29:21;;;;;;;0.60;0.57;;;;;;;20.82;57.59;96596.53;10360975;28;20049;-21
2022/07/14 18:34:21;;;;;;;1.33;0.80;;;;;;;20.70;58.04;96600.91;10359613;28;20116;-22
2022/07/14 18:39:21;;;;;;;2.43;0.80;;;;;;;20.66;58.85;96595.03;10364128;28;20030;-21
2022/07/14 18:44:22;;;;;;;2.57;0.80;;;;;;;20.61;58.52;96601.84;10358123;28;20044;-20
2022/07/14 18:49:22;;;;;;;2.92;0.70;;;;;;;20.68;58.49;96606.03;10364779;28;20359;-21
2022/07/14 18:54:22;;;;;;;2.07;0.83;;;;;;;20.79;58.46;96604.19;10375654;28;20120;-21
2022/07/14 18:59:23;;;;;;;4.07;0.60;;;;;;;21.01;57.89;96598.03;10371418;28;20107;-21
2022/07/14 19:04:23;;;;;;;2.03;0.50;;;;;;;20.89;57.75;96600.72;10370710;28;20044;-21
2022/07/14 19:09:26;;;;;;;0.68;0.60;;;;;;;20.83;57.99;96616.03;10366559;28;20400;-21
2022/07/14 19:14:26;;;;;;;1.48;0.50;;;;;;;20.75;58.32;96610.19;10365415;28;20061;-20
2022/07/14 19:19:27;;;;;;;1.97;0.60;;;;;;;20.80;58.22;96636.41;10367895;28;20030;-21
2022/07/14 19:24:29;;;;;;;1.85;0.50;;;;;;;20.79;57.89;96657.63;10369580;28;20066;-21
2022/07/14 19:29:31;;;;;;;1.15;0.68;;;;;;;20.79;58.22;96672.91;10366753;28;20095;-21
2022/07/14 19:34:31;;;;;;;0.52;0.50;;;;;;;20.76;58.14;96680.56;10358241;28;20033;-21
2022/07/14 19:39:32;;;;;;;1.70;0.70;;;;;;;20.88;58.56;96703.38;10364204;28;20084;-21
2022/07/14 19:44:33;;;;;;;0.90;0.60;;;;;;;21.05;57.95;96711.69;10364862;28;20034;-21
2022/07/14 19:49:33;;;;;;;1.23;0.70;;;;;;;20.93;57.78;96734.72;10371923;28;20327;-21
2022/07/14 19:54:34;;;;;;;1.48;0.40;;;;;;;20.84;57.92;96739.88;10368871;28;20033;-22
2022/07/14 19:59:35;;;;;;;0.35;0.35;;;;;;;20.81;58.23;96750.06;10369577;28;20025;-21
2022/07/14 20:04:37;;;;;;;1.20;0.50;;;;;;;20.80;58.25;96753.47;10371642;28;20026;-21
2022/07/14 20:09:38;;;;;;;0.60;0.45;;;;;;;20.77;58.38;96763.69;10371344;28;20034;-21
2022/07/14 20:14:39;;;;;;;1.48;0.60;;;;;;;20.77;58.46;96776.41;10367412;28;20044;-21
2022/07/14 20:19:39;;;;;;;0.50;0.50;;;;;;;20.76;58.18;96777.25;10368791;28;20038;-22
2022/07/14 20:24:40;;;;;;;2.10;0.97;;;;;;;20.80;59.12;96781.47;10373726;28;20419;-21
2022/07/14 20:34:59;;;;;;;4.53;0.60;;;;;;;20.97;58.35;96787.28;10364906;28;20041;-21
2022/07/14 20:40:00;;;;;;;0.85;0.38;;;;;;;20.87;58.07;96800.94;10362503;28;20066;-21
2022/07/14 20:45:00;;;;;;;0.47;0.47;;;;;;;20.82;57.80;96791.63;10360963;28;20041;-20
2022/07/14 20:50:00;;;;;;;2.15;0.50;;;;;;;20.81;58.04;96795.03;10365010;28;20369;-21
2022/07/14 20:55:01;;;;;;;1.23;0.50;;;;;;;20.79;58.18;96805.22;10358454;28;20127;-21
2022/07/14 21:00:04;;;;;;;1.05;0.43;;;;;;;20.76;58.15;96805.25;10359873;28;20033;-21
2022/07/14 21:05:06;;;;;;;0.50;0.50;;;;;;;20.78;58.37;96811.16;10365605;28;20084;-21
2022/07/14 21:10:07;;;;;;;0.65;0.50;;;;;;;20.76;58.30;96820.53;10360228;28;20029;-21
2022/07/14 21:15:08;;;;;;;1.00;0.70;;;;;;;20.96;58.63;96811.06;10366537;28;20358;-21
2022/07/14 21:20:09;;;;;;;0.40;0.40;;;;;;;21.10;57.88;96816.88;10372207;28;20034;-21
2022/07/14 21:25:10;;;;;;;0.63;0.50;;;;;;;20.92;57.70;96819.59;10370098;28;20064;-23
2022/07/14 21:30:10;;;;;;;0.50;0.50;;;;;;;20.84;57.94;96821.31;10361026;28;20517;-22
2022/07/14 21:35:10;;;;;;;0.80;0.50;;;;;;;20.81;58.25;96826.41;10365318;28;20045;-21
2022/07/14 21:40:11;;;;;;;0.50;0.50;;;;;;;20.73;58.29;96815.44;10368297;28;20029;-21
2022/07/14 21:45:12;;;;;;;1.45;0.85;;;;;;;20.79;58.35;96822.22;10367386;28;20163;-21
2022/07/14 21:50:13;;;;;;;1.40;0.40;;;;;;;20.77;58.36;96818.81;10367543;28;20447;-22
2022/07/14 21:55:13;;;;;;;1.35;0.50;;;;;;;20.76;58.25;96820.53;10368293;28;20034;-21
2022/07/14 22:00:14;;;;;;;2.30;1.07;;;;;;;20.83;59.43;96816.22;10366214;28;20034;-22
2022/07/14 22:05:14;;;;;;;1.30;0.50;;;;;;;21.07;58.20;96823.69;10371827;28;20038;-21
2022/07/14 22:10:16;;;;;;;0.53;0.40;;;;;;;21.03;57.72;96827.97;10370052;28;20099;-22
2022/07/14 22:15:19;;;;;;;0.50;0.45;;;;;;;20.88;58.21;96828.09;10373878;28;20405;-21
2022/07/14 22:20:19;;;;;;;0.70;0.35;;;;;;;20.80;58.28;96831.53;10373444;28;20076;-21
2022/07/14 22:25:22;;;;;;;0.40;0.40;;;;;;;20.80;58.36;96837.44;10374495;28;20444;-20
2022/07/14 22:30:22;;;;;;;1.40;0.80;;;;;;;20.80;58.20;96828.97;10365949;28;20039;-20
2022/07/14 22:35:24;;;;;;;0.50;0.40;;;;;;;20.79;58.22;96833.22;10371266;28;20034;-21
2022/07/14 22:40:25;;;;;;;0.45;0.30;;;;;;;20.77;58.35;96837.47;10373590;28;20034;-20
2022/07/14 22:45:25;;;;;;;1.88;1.08;;;;;;;20.77;58.58;96845.09;10367641;28;20037;-21
2022/07/14 22:50:26;;;;;;;0.77;0.60;;;;;;;20.92;58.66;96847.59;10370988;28;20117;-21
2022/07/14 22:55:26;;;;;;;1.40;0.57;;;;;;;21.13;58.24;96859.31;10371854;28;20029;-21
2022/07/14 23:00:26;;;;;;;0.60;0.30;;;;;;;21.02;58.23;96858.53;10372233;28;20220;-21
2022/07/14 23:05:27;;;;;;;0.50;0.40;;;;;;;20.88;57.88;96858.63;10369989;28;20767;-21
2022/07/14 23:10:27;;;;;;;0.60;0.30;;;;;;;20.84;58.30;96863.72;10371303;28;20305;-20
2022/07/14 23:15:36;;;;;;;2.13;0.40;;;;;;;20.75;58.20;96846.81;10372755;28;20034;-21
2022/07/14 23:20:42;;;;;;;1.40;0.50;;;;;;;20.79;58.34;96873.94;10369658;28;20530;-21
2022/07/14 23:25:42;;;;;;;0.85;0.50;;;;;;;20.78;58.45;96874.78;10371417;28;20402;-21
2022/07/14 23:30:43;;;;;;;0.50;0.50;;;;;;;20.78;58.29;96877.34;10366693;28;20041;-21
2022/07/14 23:35:43;;;;;;;0.50;0.40;;;;;;;20.78;58.26;96887.50;10372181;28;20033;-21
2022/07/14 23:40:44;;;;;;;0.87;0.70;;;;;;;21.00;58.46;96891.66;10373487;28;20292;-22
2022/07/14 23:45:44;;;;;;;0.50;0.50;;;;;;;21.14;57.45;96894.91;10374796;28;20037;-21
2022/07/14 23:50:45;;;;;;;0.70;0.50;;;;;;;20.92;57.93;96893.41;10376572;28;20037;-21